Time;durP1;ratioP1;P1;durP2;ratioP2;P2;SDS_P1;SDS_P2;PMS_P1;PMS_P2;Temp;Humidity;BMP_temperature;BMP_pressure;BME280_temperature;BME280_humidity;BME280_pressure;Samples;Min_cycle;Max_cycle;Signal;HPM_P1;HPM_P2
2023/02/18 00:00:56;;;;;;;;;3.25;2.25;;;;;13.67;100.00;102605.47;5037887;28;45419;-78
2023/02/18 00:03:25;;;;;;;;;6.00;4.00;;;;;13.66;100.00;102611.59;5034039;28;45467;-78
2023/02/18 00:05:50;;;;;;;;;5.75;3.50;;;;;13.66;100.00;102615.06;5017960;28;45598;-78
2023/02/18 00:08:16;;;;;;;;;3.00;3.00;;;;;13.64;100.00;102615.97;5018021;28;45995;-78
2023/02/18 00:10:41;;;;;;;;;5.00;3.25;;;;;13.65;100.00;102615.97;5027680;28;68483;-78
2023/02/18 00:13:07;;;;;;;;;5.75;4.25;;;;;13.66;100.00;102620.31;5037892;28;45395;-78
2023/02/18 00:15:34;;;;;;;;;3.25;3.25;;;;;13.63;100.00;102609.00;5018805;28;55742;-78
2023/02/18 00:18:00;;;;;;;;;3.00;2.75;;;;;13.63;100.00;102616.84;5009010;28;47434;-78
2023/02/18 00:20:25;;;;;;;;;3.50;3.50;;;;;13.60;100.00;102615.16;5018471;28;72620;-78
2023/02/18 00:22:50;;;;;;;;;5.75;4.00;;;;;13.62;100.00;102615.13;5036842;28;59744;-78
2023/02/18 00:25:16;;;;;;;;;3.00;3.00;;;;;13.57;100.00;102612.56;5035938;28;65128;-78
2023/02/18 00:27:41;;;;;;;;;6.00;3.00;;;;;13.60;100.00;102609.06;5036179;28;70149;-79
2023/02/18 00:30:07;;;;;;;;;3.25;3.00;;;;;13.58;100.00;102603.84;5036638;28;62516;-78
2023/02/18 00:32:33;;;;;;;;;5.25;3.25;;;;;13.59;100.00;102604.69;5032451;28;45461;-78
2023/02/18 00:34:59;;;;;;;;;3.25;3.25;;;;;13.58;100.00;102605.56;5017612;28;45424;-78
2023/02/18 00:37:24;;;;;;;;;4.75;3.25;;;;;13.54;100.00;102605.63;5019248;28;72500;-77
2023/02/18 00:39:49;;;;;;;;;4.75;3.00;;;;;13.55;100.00;102611.72;5036675;28;57280;-78
2023/02/18 00:42:15;;;;;;;;;3.00;3.00;;;;;13.54;100.00;102604.75;5036232;28;61426;-78
2023/02/18 00:44:40;;;;;;;;;3.75;3.00;;;;;13.55;100.00;102609.09;5036385;28;62612;-78
2023/02/18 00:47:05;;;;;;;;;3.50;3.00;;;;;13.57;100.00;102619.56;5022309;28;47466;-78
2023/02/18 00:49:31;;;;;;;;;4.75;2.25;;;;;13.53;100.00;102616.97;5021832;28;68004;-78
2023/02/18 00:51:56;;;;;;;;;4.00;3.00;;;;;13.56;100.00;102610.84;5018993;28;45682;-78
2023/02/18 00:54:21;;;;;;;;;5.25;3.50;;;;;13.60;100.00;102612.53;5034777;28;49633;-78
2023/02/18 00:56:47;;;;;;;;;3.00;3.00;;;;;13.63;100.00;102606.38;5036312;28;69575;-79
2023/02/18 00:59:12;;;;;;;;;4.00;4.00;;;;;13.61;100.00;102608.16;5021681;28;61639;-78
2023/02/18 01:01:37;;;;;;;;;5.25;4.00;;;;;13.59;100.00;102600.31;5036343;28;61123;-78
2023/02/18 01:04:03;;;;;;;;;4.00;2.75;;;;;13.58;100.00;102595.09;5039142;28;55779;-78
2023/02/18 01:06:28;;;;;;;;;3.00;3.00;;;;;13.52;100.00;102589.09;5016436;28;47413;-78
2023/02/18 01:08:53;;;;;;;;;8.25;3.50;;;;;13.52;100.00;102590.81;5016190;28;69706;-77
2023/02/18 01:11:19;;;;;;;;;5.50;5.00;;;;;13.51;100.00;102589.94;5016314;28;64724;-79
2023/02/18 01:13:44;;;;;;;;;6.50;4.00;;;;;13.53;100.00;102589.94;5015965;28;67401;-79
2023/02/18 01:16:10;;;;;;;;;4.00;4.00;;;;;13.49;100.00;102590.88;5026830;28;45593;-79
2023/02/18 01:18:37;;;;;;;;;3.50;3.00;;;;;13.51;100.00;102595.19;5036600;28;45708;-79
2023/02/18 01:21:04;;;;;;;;;4.50;3.00;;;;;13.53;100.00;102589.94;5000054;28;45342;-79
2023/02/18 01:23:29;;;;;;;;;4.00;4.00;;;;;13.53;100.00;102589.94;5016830;28;45535;-79
2023/02/18 01:25:57;;;;;;;;;7.75;3.75;;;;;13.59;100.00;102587.25;5015547;28;72214;-79
2023/02/18 01:28:24;;;;;;;;;4.50;3.00;;;;;13.58;100.00;102585.53;5016585;28;45766;-78
2023/02/18 01:30:50;;;;;;;;;2.00;2.00;;;;;13.59;100.00;102587.25;5016772;28;45418;-79
2023/02/18 01:33:16;;;;;;;;;3.25;3.00;;;;;13.57;100.00;102581.16;5016199;28;45614;-79
2023/02/18 01:35:42;;;;;;;;;6.00;4.50;;;;;13.53;100.00;102575.09;5016246;28;46153;-79
2023/02/18 01:38:07;;;;;;;;;0.25;0.00;;;;;13.57;100.00;102585.53;5016576;28;45430;-78
2023/02/18 01:40:33;;;;;;;;;3.00;3.00;;;;;13.58;100.00;102577.69;5015115;28;63473;-79
2023/02/18 01:42:58;;;;;;;;;3.00;3.00;;;;;13.57;100.00;102575.94;5021784;28;45453;-78
2023/02/18 01:45:33;;;;;;;;;5.75;3.50;;;;;13.53;100.00;102577.72;5036024;28;48451;-79
2023/02/18 01:48:05;;;;;;;;;4.00;4.00;;;;;13.38;100.00;102567.44;5036394;28;45363;-79
2023/02/18 01:50:34;;;;;;;;;3.50;3.00;;;;;13.39;100.00;102571.81;5018041;28;45507;-79
2023/02/18 01:53:01;;;;;;;;;3.25;1.00;;;;;13.34;100.00;102576.22;5018396;28;45395;-79
2023/02/18 01:55:26;;;;;;;;;4.00;1.75;;;;;13.33;100.00;102570.13;5035130;28;72021;-79
2023/02/18 01:57:52;;;;;;;;;2.25;2.00;;;;;13.35;100.00;102562.22;5017408;28;71311;-76
2023/02/18 02:00:20;;;;;;;;;2.00;2.00;;;;;13.35;100.00;102565.72;5035303;28;62632;-78
2023/02/18 02:02:48;;;;;;;;;6.75;2.00;;;;;13.36;100.00;102563.97;5036070;28;45496;-79
2023/02/18 02:05:14;;;;;;;;;2.00;2.00;;;;;13.33;100.00;102564.00;5017708;28;45716;-78
2023/02/18 02:07:40;;;;;;;;;5.50;3.00;;;;;13.22;100.00;102552.75;5036112;28;45317;-78
2023/02/18 02:10:06;;;;;;;;;3.75;2.25;;;;;13.18;100.00;102551.94;5018087;28;45454;-78
2023/02/18 02:12:39;;;;;;;;;1.75;1.75;;;;;13.17;100.00;102545.84;5018033;28;45496;-79
2023/02/18 02:15:17;;;;;;;;;4.00;2.00;;;;;13.21;100.00;102553.66;5035757;28;45674;-78
2023/02/18 02:18:05;;;;;;;;;4.00;4.00;;;;;13.16;100.00;102554.56;5017979;28;46093;-78
2023/02/18 02:20:33;;;;;;;;;2.25;2.25;;;;;13.15;100.00;102552.84;5035303;28;45498;-78
2023/02/18 02:23:17;;;;;;;;;2.00;2.00;;;;;13.16;100.00;102543.25;5035738;28;45453;-79
2023/02/18 02:25:51;;;;;;;;;3.00;1.50;;;;;13.12;100.00;102546.78;5035691;28;46486;-78
2023/02/18 02:28:32;;;;;;;;;1.75;1.75;;;;;13.09;100.00;102536.34;5035776;28;45379;-78
2023/02/18 02:31:31;;;;;;;;;4.75;0.50;;;;;13.13;100.00;102532.81;5017936;28;45663;-78
2023/02/18 02:34:30;;;;;;;;;4.00;2.50;;;;;13.13;100.00;102538.03;5017441;28;45483;-78
2023/02/18 02:37:24;;;;;;;;;1.75;1.75;;;;;13.08;100.00;102537.25;5035464;28;46364;-79
2023/02/18 02:40:14;;;;;;;;;4.50;1.50;;;;;13.08;100.00;102530.25;5035155;28;45632;-78
2023/02/18 02:42:45;;;;;;;;;2.75;2.00;;;;;13.06;100.00;102528.56;5035314;28;45386;-79
2023/02/18 02:45:13;;;;;;;;;4.75;2.00;;;;;13.03;100.00;102523.34;5017739;28;45547;-78
2023/02/18 02:47:48;;;;;;;;;4.00;2.00;;;;;13.03;100.00;102511.13;5035279;28;46754;-78
2023/02/18 02:50:26;;;;;;;;;1.00;1.00;;;;;13.07;100.00;102518.06;5017053;28;45327;-79
2023/02/18 02:52:56;;;;;;;;;5.50;2.00;;;;;13.08;100.00;102516.31;5022983;28;45460;-78
2023/02/18 02:55:22;;;;;;;;;3.50;3.00;;;;;13.05;100.00;102503.28;5022920;28;45431;-79
2023/02/18 02:57:53;;;;;;;;;2.00;2.00;;;;;13.10;100.00;102498.88;5037350;28;73369;-77
2023/02/18 03:00:25;;;;;;;;;1.00;1.00;;;;;13.13;100.00;102514.50;5020240;28;45380;-78
2023/02/18 03:03:02;;;;;;;;;4.00;2.50;;;;;13.09;100.00;102507.59;5019923;28;45424;-79
2023/02/18 03:05:42;;;;;;;;;1.00;1.00;;;;;13.07;100.00;102504.97;5020525;28;45346;-78
2023/02/18 03:08:07;;;;;;;;;3.50;2.00;;;;;13.08;100.00;102509.34;5020079;28;45415;-78
2023/02/18 03:10:52;;;;;;;;;4.00;2.00;;;;;13.04;100.00;102505.03;5037938;28;45348;-79
2023/02/18 03:13:32;;;;;;;;;5.50;3.00;;;;;13.01;100.00;102523.34;5037818;28;45391;-78
2023/02/18 03:16:12;;;;;;;;;1.00;1.00;;;;;13.02;100.00;102508.53;5020052;28;45511;-79
2023/02/18 03:19:00;;;;;;;;;1.25;1.25;;;;;13.08;100.00;102505.88;5019435;28;45519;-78
2023/02/18 03:21:29;;;;;;;;;6.00;3.00;;;;;13.06;100.00;102499.78;5019800;28;45387;-79
2023/02/18 03:24:08;;;;;;;;;1.00;1.00;;;;;13.07;100.00;102501.50;5020019;28;45373;-79
2023/02/18 03:26:35;;;;;;;;;4.00;2.50;;;;;13.03;100.00;102497.19;5019956;28;45429;-79
2023/02/18 03:29:02;;;;;;;;;2.00;1.00;;;;;13.04;100.00;102501.53;5019825;28;46026;-79
2023/02/18 03:31:29;;;;;;;;;2.00;2.00;;;;;13.02;100.00;102506.81;5019391;28;45371;-79
2023/02/18 03:34:00;;;;;;;;;2.00;1.00;;;;;13.02;100.00;102498.97;5019752;28;45477;-78
2023/02/18 03:36:26;;;;;;;;;1.75;1.75;;;;;13.02;100.00;102491.13;5019421;28;45818;-79
2023/02/18 03:39:08;;;;;;;;;1.25;1.00;;;;;13.01;100.00;102485.91;5018563;28;74275;-78
2023/02/18 03:41:34;;;;;;;;;3.00;1.75;;;;;12.99;100.00;102491.13;5019425;28;45381;-79
2023/02/18 03:44:01;;;;;;;;;2.25;2.25;;;;;12.96;100.00;102499.91;5018600;28;63866;-79
2023/02/18 03:46:27;;;;;;;;;3.00;2.00;;;;;12.95;100.00;102499.91;5036913;28;45485;-78
2023/02/18 03:48:53;;;;;;;;;5.50;3.00;;;;;12.94;100.00;102491.16;5019041;28;47502;-78
2023/02/18 03:51:19;;;;;;;;;1.50;1.50;;;;;12.95;100.00;102489.44;5036796;28;45326;-78
2023/02/18 03:53:45;;;;;;;;;1.75;1.50;;;;;12.98;100.00;102495.50;4993461;28;1251204;-78
2023/02/18 03:56:11;;;;;;;;;3.50;2.00;;;;;12.98;100.00;102508.59;5037859;28;45324;-78
2023/02/18 03:58:36;;;;;;;;;3.00;2.50;;;;;12.93;100.00;102492.06;5037781;28;45963;-78
2023/02/18 04:01:01;;;;;;;;;2.00;2.00;;;;;12.91;100.00;102493.00;5036529;28;70295;-78
2023/02/18 04:03:27;;;;;;;;;4.00;2.75;;;;;12.88;100.00;102504.31;5019601;28;45499;-79
2023/02/18 04:05:52;;;;;;;;;4.25;2.50;;;;;12.89;100.00;102508.69;5037779;28;46115;-78
2023/02/18 04:08:17;;;;;;;;;4.00;1.00;;;;;12.89;100.00;102497.34;5019726;28;49302;-78
2023/02/18 04:10:43;;;;;;;;;2.00;2.00;;;;;12.91;100.00;102501.69;5037497;28;45806;-78
2023/02/18 04:13:08;;;;;;;;;2.00;2.00;;;;;12.89;100.00;102502.56;5038053;28;45433;-78
2023/02/18 04:15:34;;;;;;;;;3.00;2.00;;;;;12.87;100.00;102505.22;5036444;28;66875;-79
2023/02/18 04:17:59;;;;;;;;;1.25;1.00;;;;;12.84;100.00;102505.25;5037424;28;46318;-78
2023/02/18 04:20:24;;;;;;;;;2.00;2.00;;;;;12.81;100.00;102494.81;5019843;28;45477;-78
2023/02/18 04:22:50;;;;;;;;;3.00;0.00;;;;;12.81;100.00;102500.03;5037596;28;45319;-78
2023/02/18 04:25:15;;;;;;;;;5.25;3.00;;;;;12.81;100.00;102493.94;5036889;28;64927;-78
2023/02/18 04:27:40;;;;;;;;;3.50;2.00;;;;;12.79;100.00;102493.97;5037483;28;46043;-77
2023/02/18 04:30:07;;;;;;;;;6.50;2.00;;;;;12.71;100.00;102494.03;5036756;28;55860;-79
2023/02/18 04:32:32;;;;;;;;;3.75;1.50;;;;;12.73;100.00;102486.19;5037373;28;45438;-78
2023/02/18 04:34:57;;;;;;;;;2.00;2.00;;;;;12.74;100.00;102491.41;5037201;28;46988;-78
2023/02/18 04:37:23;;;;;;;;;3.50;3.00;;;;;12.77;100.00;102500.94;5036474;28;67811;-79
2023/02/18 04:39:48;;;;;;;;;2.00;1.25;;;;;12.74;100.00;102504.47;5037153;28;45376;-79
2023/02/18 04:42:13;;;;;;;;;7.75;2.00;;;;;12.73;100.00;102501.88;5036742;28;56491;-78
2023/02/18 04:44:39;;;;;;;;;2.00;2.00;;;;;12.66;100.00;102482.75;5017875;28;68196;-77
2023/02/18 04:47:05;;;;;;;;;3.00;3.00;;;;;12.67;100.00;102494.09;5017033;28;71168;-78
2023/02/18 04:49:30;;;;;;;;;4.50;2.75;;;;;12.68;100.00;102490.59;5022711;28;45383;-79
2023/02/18 04:51:55;;;;;;;;;4.00;2.00;;;;;12.67;100.00;102483.66;5036514;28;65522;-79
2023/02/18 04:54:21;;;;;;;;;4.00;2.25;;;;;12.64;100.00;102494.97;5037015;28;45363;-78
2023/02/18 04:56:46;;;;;;;;;2.00;2.00;;;;;12.64;100.00;102488.91;5036168;28;66905;-79
2023/02/18 04:59:11;;;;;;;;;2.00;2.00;;;;;12.66;100.00;102479.28;5035757;28;70025;-78
2023/02/18 05:01:37;;;;;;;;;3.50;1.75;;;;;12.65;100.00;102477.53;5037176;28;45456;-79
2023/02/18 05:04:02;;;;;;;;;3.75;3.00;;;;;12.69;100.00;102490.56;5036165;28;66723;-79
2023/02/18 05:06:28;;;;;;;;;3.50;3.50;;;;;12.69;100.00;102481.88;5018948;28;46344;-79
2023/02/18 05:08:53;;;;;;;;;3.00;2.25;;;;;12.72;100.00;102493.16;5036033;28;69075;-78
2023/02/18 05:11:18;;;;;;;;;3.00;3.00;;;;;12.69;100.00;102479.28;5035994;28;64865;-79
2023/02/18 05:13:44;;;;;;;;;5.00;4.00;;;;;12.71;100.00;102490.56;5035149;28;66327;-78
2023/02/18 05:16:09;;;;;;;;;3.00;3.00;;;;;12.72;100.00;102490.56;5036455;28;46409;-78
2023/02/18 05:18:35;;;;;;;;;3.00;2.00;;;;;12.73;100.00;102504.47;5035696;28;71081;-79
2023/02/18 05:21:00;;;;;;;;;3.00;3.00;;;;;12.71;100.00;102506.25;5035994;28;66256;-79
2023/02/18 05:23:26;;;;;;;;;2.50;2.50;;;;;12.70;100.00;102507.13;5036512;28;45451;-79
2023/02/18 05:25:51;;;;;;;;;4.00;2.00;;;;;12.63;100.00;102482.81;5035682;28;67569;-79
2023/02/18 05:28:17;;;;;;;;;2.00;2.00;;;;;12.67;100.00;102501.94;5036375;28;45398;-78
2023/02/18 05:30:42;;;;;;;;;4.00;2.00;;;;;12.63;100.00;102503.72;5036595;28;45529;-78
2023/02/18 05:33:07;;;;;;;;;1.25;0.75;;;;;12.61;100.00;102504.59;5035838;28;58187;-79
2023/02/18 05:35:33;;;;;;;;;2.75;2.00;;;;;12.56;100.00;102515.09;5035471;28;70963;-79
2023/02/18 05:37:58;;;;;;;;;2.75;2.00;;;;;12.47;100.00;102486.44;5035518;28;67766;-78
2023/02/18 05:40:23;;;;;;;;;5.00;2.00;;;;;12.50;100.00;102500.34;5035525;28;61847;-78
2023/02/18 05:42:48;;;;;;;;;2.75;2.00;;;;;12.42;100.00;102480.38;5035199;28;65786;-78
2023/02/18 05:45:14;;;;;;;;;4.75;2.00;;;;;12.47;100.00;102489.91;5035191;28;72179;-78
2023/02/18 05:47:39;;;;;;;;;2.00;0.25;;;;;12.46;100.00;102492.53;5036429;28;45484;-78
2023/02/18 05:50:06;;;;;;;;;3.50;2.00;;;;;12.41;100.00;102489.97;5035205;28;68049;-78
2023/02/18 05:52:31;;;;;;;;;1.25;1.00;;;;;12.33;100.00;102471.75;5036111;28;45403;-79
2023/02/18 05:54:56;;;;;;;;;1.50;1.50;;;;;12.39;100.00;102484.75;5035010;28;69377;-79
2023/02/18 05:57:22;;;;;;;;;4.00;2.00;;;;;12.42;100.00;102476.03;5035655;28;45592;-79
2023/02/18 05:59:47;;;;;;;;;2.00;2.00;;;;;12.40;100.00;102481.25;5035341;28;63332;-79
2023/02/18 06:02:12;;;;;;;;;2.25;2.25;;;;;12.42;100.00;102472.56;5036032;28;45338;-79
2023/02/18 06:04:39;;;;;;;;;3.25;2.00;;;;;12.42;100.00;102478.63;5034889;28;71812;-78
2023/02/18 06:07:05;;;;;;;;;3.00;1.00;;;;;12.44;100.00;102479.47;5035827;28;45669;-79
2023/02/18 06:09:30;;;;;;;;;2.00;2.00;;;;;12.43;100.00;102474.28;5036004;28;45504;-79
2023/02/18 06:11:56;;;;;;;;;4.00;2.50;;;;;12.46;100.00;102474.25;5035036;28;55856;-78
2023/02/18 06:14:21;;;;;;;;;3.25;1.00;;;;;12.41;100.00;102482.13;5035311;28;55209;-78
2023/02/18 06:16:46;;;;;;;;;3.00;1.00;;;;;12.38;100.00;102479.53;5035821;28;45484;-78
2023/02/18 06:19:12;;;;;;;;;1.25;1.00;;;;;12.39;100.00;102489.13;5035880;28;45320;-79
2023/02/18 06:21:37;;;;;;;;;2.00;1.00;;;;;12.36;100.00;102474.31;5034932;28;67496;-78
2023/02/18 06:24:02;;;;;;;;;2.00;2.00;;;;;12.39;100.00;102476.94;5035584;28;49486;-78
2023/02/18 06:26:28;;;;;;;;;1.00;1.00;;;;;12.38;100.00;102474.31;5035173;28;45300;-77
2023/02/18 06:28:53;;;;;;;;;4.00;2.00;;;;;12.39;100.00;102476.94;5035630;28;47736;-76
2023/02/18 06:31:18;;;;;;;;;1.25;1.25;;;;;12.42;100.00;102473.41;5034857;28;63885;-77
2023/02/18 06:33:44;;;;;;;;;3.00;1.50;;;;;12.40;100.00;102468.19;5036803;28;71622;-78
2023/02/18 06:36:11;;;;;;;;;1.50;1.00;;;;;12.42;100.00;102464.72;5036997;28;45290;-78
2023/02/18 06:38:38;;;;;;;;;1.00;0.00;;;;;12.39;100.00;102473.44;5035820;28;45353;-78
2023/02/18 06:41:04;;;;;;;;;1.75;1.75;;;;;12.34;100.00;102475.22;5035247;28;45409;-79
2023/02/18 06:43:29;;;;;;;;;1.00;0.75;;;;;12.30;100.00;102474.38;5034613;28;69756;-78
2023/02/18 06:45:54;;;;;;;;;0.00;0.00;;;;;12.31;100.00;102475.25;5034783;28;67077;-79
2023/02/18 06:48:20;;;;;;;;;1.00;1.00;;;;;12.27;100.00;102470.94;5035551;28;45343;-79
2023/02/18 06:50:45;;;;;;;;;2.00;2.00;;;;;12.25;100.00;102477.91;5035321;28;45747;-79
2023/02/18 06:53:11;;;;;;;;;1.00;1.00;;;;;12.27;100.00;102476.16;5016514;28;69943;-78
2023/02/18 06:55:38;;;;;;;;;1.00;1.00;;;;;12.26;100.00;102474.41;5034892;28;46211;-78
2023/02/18 06:58:04;;;;;;;;;2.25;2.00;;;;;12.25;100.00;102467.47;5035497;28;45346;-79
2023/02/18 07:00:30;;;;;;;;;2.50;1.25;;;;;12.28;100.00;102465.72;5017641;28;45332;-80
2023/02/18 07:02:55;;;;;;;;;2.75;1.25;;;;;12.30;100.00;102465.69;5016911;28;59296;-78
2023/02/18 07:05:20;;;;;;;;;1.25;1.25;;;;;12.25;100.00;102460.50;5034762;28;66113;-78
2023/02/18 07:07:46;;;;;;;;;2.25;1.25;;;;;12.29;100.00;102463.94;5035429;28;45288;-79
2023/02/18 07:10:11;;;;;;;;;2.75;2.00;;;;;12.32;100.00;102469.16;5034266;28;67246;-79
2023/02/18 07:12:37;;;;;;;;;3.00;3.00;;;;;12.34;100.00;102467.41;5035512;28;46255;-79
2023/02/18 07:15:02;;;;;;;;;6.75;2.00;;;;;12.28;100.00;102454.41;5034811;28;69405;-79
2023/02/18 07:17:28;;;;;;;;;2.00;2.00;;;;;12.31;100.00;102468.31;5035418;28;45592;-79
2023/02/18 07:19:54;;;;;;;;;2.50;1.50;;;;;12.25;100.00;102457.03;5034955;28;45310;-78
2023/02/18 07:22:20;;;;;;;;;4.00;1.25;;;;;12.27;100.00;102470.94;5035044;28;47375;-79
2023/02/18 07:24:45;;;;;;;;;4.00;2.50;;;;;12.25;100.00;102476.16;5016764;28;45806;-78
2023/02/18 07:27:10;;;;;;;;;4.00;2.25;;;;;12.19;100.00;102465.78;5034329;28;62083;-79
2023/02/18 07:29:36;;;;;;;;;5.00;2.00;;;;;12.22;100.00;102471.00;5017274;28;45377;-79
2023/02/18 07:32:01;;;;;;;;;3.00;3.00;;;;;12.26;100.00;102477.03;5033863;28;67960;-78
2023/02/18 07:34:27;;;;;;;;;3.00;3.00;;;;;12.28;100.00;102470.94;5025594;28;45486;-79
2023/02/18 07:36:52;;;;;;;;;8.25;3.00;;;;;12.22;100.00;102473.59;5014356;28;58455;-79
2023/02/18 07:39:19;;;;;;;;;1.00;1.00;;;;;12.19;100.00;102468.41;5016550;28;65882;-81
2023/02/18 07:41:47;;;;;;;;;2.25;2.00;;;;;12.18;100.00;102477.97;5023512;28;46591;-79
2023/02/18 07:44:13;;;;;;;;;3.00;2.00;;;;;12.22;100.00;102480.53;5027357;28;45494;-82
2023/02/18 07:46:40;;;;;;;;;1.00;1.00;;;;;12.22;100.00;102485.75;5018264;28;45498;-80
2023/02/18 07:49:05;;;;;;;;;2.00;2.00;;;;;12.25;100.00;102481.38;5020461;28;45367;-81
2023/02/18 07:51:30;;;;;;;;;2.50;2.50;;;;;12.19;100.00;102469.25;5027606;28;64069;-80
2023/02/18 07:53:56;;;;;;;;;1.00;1.00;;;;;12.32;100.00;102487.44;5022104;28;67276;-81
2023/02/18 07:56:21;;;;;;;;;2.00;1.00;;;;;12.37;100.00;102483.06;5038364;28;45463;-81
2023/02/18 07:58:46;;;;;;;;;0.75;0.75;;;;;12.35;100.00;102479.56;5037010;28;62020;-81
2023/02/18 08:01:14;;;;;;;;;2.25;2.00;;;;;12.34;100.00;102478.69;5025374;28;70168;-80
2023/02/18 08:03:39;;;;;;;;;1.50;1.00;;;;;12.39;100.00;102481.28;5036263;28;45733;-81
2023/02/18 08:06:05;;;;;;;;;8.00;1.75;;;;;12.36;100.00;102478.69;5032108;28;59388;-80
2023/02/18 08:08:31;;;;;;;;;2.75;2.00;;;;;12.39;100.00;102499.56;5017715;28;45420;-80
2023/02/18 08:11:01;;;;;;;;;3.75;2.00;;;;;12.34;100.00;102486.53;4983351;28;46681;-81
2023/02/18 08:13:27;;;;;;;;;2.50;1.50;;;;;12.31;100.00;102489.19;5000004;28;45388;-81
2023/02/18 08:15:55;;;;;;;;;1.00;1.00;;;;;12.43;100.00;102497.81;5017769;28;45360;-81
2023/02/18 08:18:22;;;;;;;;;2.75;0.75;;;;;12.43;100.00;102497.81;5023471;28;45492;-81
2023/02/18 08:20:48;;;;;;;;;1.00;1.00;;;;;12.46;100.00;102501.25;5036396;28;45687;-81
2023/02/18 08:23:14;;;;;;;;;1.75;1.00;;;;;12.47;100.00;102499.50;5049509;28;45909;-82
2023/02/18 08:25:40;;;;;;;;;1.00;1.00;;;;;12.42;100.00;102489.06;5037951;28;45416;-81
2023/02/18 08:28:05;;;;;;;;;1.00;1.00;;;;;12.46;100.00;102498.66;5005560;28;63373;-82
2023/02/18 08:30:31;;;;;;;;;2.25;1.00;;;;;12.50;100.00;102515.13;5019082;28;67266;-83
2023/02/18 08:32:57;;;;;;;;;1.25;1.00;;;;;12.41;100.00;102487.38;5003443;28;45466;-82
2023/02/18 08:35:22;;;;;;;;;2.00;1.25;;;;;12.51;100.00;102509.88;5019989;28;45579;-81
2023/02/18 08:37:48;;;;;;;;;0.00;0.00;;;;;12.51;100.00;102514.25;5019535;28;45379;-81
2023/02/18 08:40:14;;;;;;;;;1.00;1.00;;;;;12.52;100.00;102524.69;5018432;28;69748;-84
2023/02/18 08:42:39;;;;;;;;;1.00;0.25;;;;;12.45;100.00;102501.25;5019859;28;45314;-85
2023/02/18 08:45:05;;;;;;;;;3.25;0.25;;;;;12.50;100.00;102515.13;5037556;28;45511;-86
2023/02/18 08:47:33;;;;;;;;;1.00;1.00;;;;;12.48;100.00;102509.03;5019819;28;45542;-86
2023/02/18 08:49:58;;;;;;;;;1.00;1.00;;;;;12.57;100.00;102520.31;5007552;28;47125;-84
2023/02/18 08:52:24;;;;;;;;;1.25;1.00;;;;;12.59;100.00;102520.25;5036999;28;54450;-84
2023/02/18 08:54:50;;;;;;;;;1.00;0.00;;;;;12.58;100.00;102515.94;5019701;28;45755;-83
2023/02/18 08:57:15;;;;;;;;;1.50;0.00;;;;;12.67;100.00;102521.09;5019514;28;45390;-85
2023/02/18 08:59:41;;;;;;;;;2.50;1.00;;;;;12.71;100.00;102519.31;5037197;28;45446;-87
2023/02/18 09:02:06;;;;;;;;;2.75;1.00;;;;;12.76;100.00;102518.38;5037985;28;45999;-88
2023/02/18 09:04:34;;;;;;;;;1.00;1.00;;;;;12.81;100.00;102520.09;5037999;28;45325;-90
2023/02/18 09:07:02;;;;;;;;;2.25;1.50;;;;;12.74;100.00;102507.09;5019928;28;45395;-88
2023/02/18 09:09:30;;;;;;;;;3.00;0.25;;;;;12.65;100.00;102499.34;5019392;28;46445;-87
2023/02/18 09:11:58;;;;;;;;;2.00;1.00;;;;;12.69;100.00;102503.63;5000935;28;45977;-86
2023/02/18 09:14:27;;;;;;;;;1.25;0.00;;;;;12.58;100.00;102484.59;5018987;28;58328;-86
2023/02/18 09:16:57;;;;;;;;;1.00;0.00;;;;;12.75;100.00;102502.72;5003048;28;45512;-85
2023/02/18 09:19:22;;;;;;;;;0.00;0.00;;;;;12.79;100.00;102501.78;5002556;28;46474;-85
2023/02/18 09:21:48;;;;;;;;;1.50;0.00;;;;;12.94;100.00;102514.69;5036696;28;45317;-82
2023/02/18 09:24:13;;;;;;;;;0.50;0.50;;;;;12.96;100.00;102514.69;5037038;28;45474;-83
2023/02/18 09:26:39;;;;;;;;;2.00;0.25;;;;;12.93;100.00;102506.91;5036933;28;45419;-84
2023/02/18 09:29:04;;;;;;;;;0.00;0.00;;;;;12.95;100.00;102507.75;5018977;28;46729;-82
2023/02/18 09:31:30;;;;;;;;;0.75;0.75;;;;;13.13;100.00;102524.97;5036147;28;63762;-85
2023/02/18 09:33:58;;;;;;;;;2.00;0.00;;;;;13.15;100.00;102529.31;5036237;28;45224;-82
2023/02/18 09:36:24;;;;;;;;;1.00;1.00;;;;;13.17;100.00;102531.91;5036739;28;45724;-81
2023/02/18 09:38:49;;;;;;;;;4.00;1.00;;;;;13.23;100.00;102537.06;5036355;28;45752;-81
2023/02/18 09:41:42;;;;;;;;;0.00;0.00;;;;;13.22;100.00;102539.69;5035512;28;62869;-81
2023/02/18 09:44:17;;;;;;;;;1.00;1.00;;;;;13.21;100.00;102532.75;5027689;28;45618;-82
2023/02/18 09:46:49;;;;;;;;;2.25;1.00;;;;;13.20;100.00;102531.84;5018838;28;45492;-84
2023/02/18 09:49:21;;;;;;;;;0.00;0.00;;;;;13.20;100.00;102534.47;5018139;28;47127;-82
2023/02/18 09:51:46;;;;;;;;;0.25;0.25;;;;;13.23;100.00;102537.06;5018550;28;45356;-82
2023/02/18 09:54:17;;;;;;;;;2.00;0.00;;;;;13.27;100.00;102530.91;5018571;28;45533;-84
2023/02/18 09:56:44;;;;;;;;;1.50;0.50;;;;;13.37;100.00;102531.69;5020471;28;45321;-81
2023/02/18 09:59:16;;;;;;;;;1.00;0.00;;;;;13.33;100.00;102532.63;5041176;28;45450;-81
2023/02/18 10:01:42;;;;;;;;;0.00;0.00;;;;;13.28;100.00;102524.81;5036493;28;45304;-81
2023/02/18 10:04:29;;;;;;;;;1.00;0.00;;;;;13.31;100.00;102542.22;5018472;28;45739;-81
2023/02/18 10:06:56;;;;;;;;;0.00;0.00;;;;;13.26;100.00;102536.16;5018805;28;45497;-80
2023/02/18 10:09:27;;;;;;;;;0.00;0.00;;;;;13.28;100.00;102540.50;5029142;28;46163;-80
2023/02/18 10:12:06;;;;;;;;;1.50;0.00;;;;;13.36;100.00;102532.59;5009788;28;45493;-82
2023/02/18 10:14:31;;;;;;;;;0.50;0.00;;;;;13.42;100.00;102542.13;5029971;28;45435;-81
2023/02/18 10:16:57;;;;;;;;;0.00;0.00;;;;;13.38;100.00;102538.66;4999562;28;46104;-82
2023/02/18 10:19:32;;;;;;;;;2.00;0.25;;;;;13.39;100.00;102535.19;5004755;28;45862;-82
2023/02/18 10:22:00;;;;;;;;;0.00;0.00;;;;;13.41;100.00;102541.25;5032400;28;45762;-81
2023/02/18 10:24:39;;;;;;;;;0.00;0.00;;;;;13.32;100.00;102539.59;5018003;28;45502;-80
2023/02/18 10:27:06;;;;;;;;;0.75;0.75;;;;;13.32;100.00;102544.84;5018010;28;45398;-80
2023/02/18 10:29:32;;;;;;;;;0.50;0.25;;;;;13.36;100.00;102541.28;5003022;28;45487;-81
2023/02/18 10:32:12;;;;;;;;;0.00;0.00;;;;;13.39;100.00;102550.88;5005840;28;45465;-81
2023/02/18 10:34:53;;;;;;;;;1.00;0.00;;;;;13.39;100.00;102550.88;5005474;28;45517;-80
2023/02/18 10:37:37;;;;;;;;;0.50;0.00;;;;;13.41;100.00;102548.22;5003528;28;45654;-84
2023/02/18 10:40:08;;;;;;;;;1.00;0.50;;;;;13.48;100.00;102544.66;5015585;28;46483;-84
2023/02/18 10:42:43;;;;;;;;;0.00;0.00;;;;;13.51;100.00;102549.84;5021856;28;45873;-84
2023/02/18 10:45:15;;;;;;;;;0.00;0.00;;;;;13.54;100.00;102547.22;4981694;28;45561;-85
2023/02/18 10:47:46;;;;;;;;;0.00;0.00;;;;;13.56;100.00;102545.44;4998077;28;45308;-83
2023/02/18 10:50:29;;;;;;;;;0.00;0.00;;;;;13.55;100.00;102531.47;5021100;28;46662;-85
2023/02/18 10:52:56;;;;;;;;;0.75;0.00;;;;;13.57;100.00;102530.59;5012538;28;45730;-85
2023/02/18 10:55:34;;;;;;;;;0.00;0.00;;;;;13.68;100.00;102537.41;5006424;28;45511;-84
2023/02/18 10:58:00;;;;;;;;;1.75;0.00;;;;;13.66;100.00;102541.78;5013572;28;45293;-85
2023/02/18 11:00:26;;;;;;;;;0.00;0.00;;;;;13.67;100.00;102533.06;5017736;28;56153;-85
2023/02/18 11:03:21;;;;;;;;;3.25;0.00;;;;;13.75;100.00;102554.75;5033562;28;45786;-84
2023/02/18 11:05:49;;;;;;;;;3.00;1.00;;;;;13.80;100.00;102546.88;5028945;28;45543;-84
2023/02/18 11:08:25;;;;;;;;;3.25;1.25;;;;;13.81;100.00;102545.97;5031355;28;45472;-82
2023/02/18 11:10:50;;;;;;;;;1.00;1.00;;;;;13.73;100.00;102527.75;5016582;28;46192;-82
2023/02/18 11:13:27;;;;;;;;;0.25;0.00;;;;;13.82;100.00;102546.81;5003715;28;45385;-82
2023/02/18 11:16:05;;;;;;;;;2.00;0.50;;;;;13.82;100.00;102547.72;5010432;28;45359;-82
2023/02/18 11:18:44;;;;;;;;;1.00;0.00;;;;;13.91;100.00;102549.31;5038700;28;45640;-82
2023/02/18 11:21:22;;;;;;;;;1.25;0.00;;;;;14.01;100.00;102545.69;5004882;28;46181;-82